createdAt,value
2023-05-21T00:00:27.848Z,456.00
2023-05-21T00:01:27.919Z,456.00
2023-05-21T00:02:27.975Z,459.00
2023-05-21T00:03:28.108Z,456.00
2023-05-21T00:04:28.052Z,453.00
2023-05-21T00:05:28.040Z,452.00
2023-05-21T00:06:28.198Z,455.00
2023-05-21T00:07:28.083Z,458.00
2023-05-21T00:08:28.210Z,457.00
2023-05-21T00:09:28.228Z,462.00
2023-05-21T00:10:28.293Z,458.00
2023-05-21T00:11:28.314Z,459.00
2023-05-21T00:12:28.401Z,458.00
2023-05-21T00:13:28.472Z,458.00
2023-05-21T00:14:28.516Z,459.00
2023-05-21T00:15:28.574Z,458.00
2023-05-21T00:16:28.666Z,457.00
2023-05-21T00:17:28.681Z,459.00
2023-05-21T00:18:28.695Z,459.00
2023-05-21T00:19:28.883Z,458.00
2023-05-21T00:20:28.851Z,461.00
2023-05-21T00:21:28.802Z,462.00
2023-05-21T00:22:28.853Z,466.00
2023-05-21T00:23:28.842Z,465.00
2023-05-21T00:24:28.888Z,463.00
2023-05-21T00:25:28.894Z,457.00
2023-05-21T00:26:28.848Z,458.00
2023-05-21T00:27:28.922Z,458.00
2023-05-21T00:28:28.841Z,463.00
2023-05-21T00:29:28.844Z,463.00
2023-05-21T00:30:28.964Z,459.00
2023-05-21T00:31:28.902Z,457.00
2023-05-21T00:32:28.828Z,457.00
2023-05-21T00:33:28.780Z,453.00
2023-05-21T00:34:28.779Z,453.00
2023-05-21T00:35:28.859Z,454.00
2023-05-21T00:36:28.888Z,454.00
2023-05-21T00:37:28.867Z,454.00
2023-05-21T00:38:28.904Z,455.00
2023-05-21T00:39:28.875Z,454.00
2023-05-21T00:40:28.928Z,452.00
2023-05-21T00:41:28.819Z,452.00
2023-05-21T00:42:28.860Z,451.00
2023-05-21T00:43:28.829Z,451.00
2023-05-21T00:44:28.868Z,450.00
2023-05-21T00:45:28.930Z,451.00
2023-05-21T00:46:28.930Z,445.00
2023-05-21T00:47:28.883Z,451.00
2023-05-21T00:48:28.865Z,458.00
2023-05-21T00:49:28.876Z,454.00
2023-05-21T00:50:28.990Z,456.00
2023-05-21T00:51:29.011Z,453.00
2023-05-21T00:52:29.110Z,453.00
2023-05-21T00:53:29.049Z,456.00
2023-05-21T00:54:29.092Z,458.00
2023-05-21T00:55:29.139Z,460.00
2023-05-21T00:56:29.123Z,456.00
2023-05-21T00:57:29.165Z,455.00
2023-05-21T00:58:29.164Z,457.00
2023-05-21T00:59:29.250Z,455.00
2023-05-21T01:00:29.291Z,451.00
2023-05-21T01:01:29.345Z,463.00
2023-05-21T01:02:29.365Z,462.00
2023-05-21T01:03:29.458Z,464.00
2023-05-21T01:04:29.364Z,465.00
2023-05-21T01:05:29.428Z,465.00
2023-05-21T01:06:29.403Z,461.00
2023-05-21T01:07:29.434Z,466.00
2023-05-21T01:08:29.509Z,453.00
2023-05-21T01:09:30.560Z,461.00
2023-05-21T01:10:29.563Z,449.00
2023-05-21T01:11:29.569Z,461.00
2023-05-21T01:12:29.583Z,445.00
2023-05-21T01:13:29.632Z,459.00
2023-05-21T01:14:29.627Z,455.00
2023-05-21T01:15:29.650Z,459.00
2023-05-21T01:16:29.678Z,462.00
2023-05-21T01:17:29.642Z,457.00
2023-05-21T01:18:29.706Z,460.00
2023-05-21T01:19:29.673Z,467.00
2023-05-21T01:20:29.622Z,453.00
2023-05-21T01:21:29.629Z,465.00
2023-05-21T01:22:29.604Z,458.00
2023-05-21T01:23:29.590Z,457.00
2023-05-21T01:24:29.635Z,456.00
2023-05-21T01:25:29.616Z,458.00
2023-05-21T01:26:29.637Z,460.00
2023-05-21T01:27:29.624Z,462.00
2023-05-21T01:28:29.621Z,465.00
2023-05-21T01:29:29.585Z,465.00
2023-05-21T01:30:29.583Z,463.00
2023-05-21T01:31:29.565Z,463.00
2023-05-21T01:32:29.619Z,472.00
2023-05-21T01:33:29.731Z,467.00
2023-05-21T01:34:29.559Z,465.00
2023-05-21T01:35:29.611Z,466.00
2023-05-21T01:36:29.563Z,466.00
2023-05-21T01:37:29.531Z,465.00
2023-05-21T01:38:29.559Z,465.00
2023-05-21T01:39:29.541Z,465.00
2023-05-21T01:40:29.674Z,463.00
2023-05-21T01:41:29.726Z,458.00
2023-05-21T01:42:29.670Z,456.00
2023-05-21T01:43:29.655Z,458.00
2023-05-21T01:44:29.634Z,461.00
2023-05-21T01:45:29.734Z,462.00
2023-05-21T01:46:29.695Z,465.00
2023-05-21T01:47:29.714Z,463.00
2023-05-21T01:48:29.704Z,462.00
2023-05-21T01:49:29.699Z,462.00
2023-05-21T01:50:29.753Z,463.00
2023-05-21T01:51:29.731Z,464.00
2023-05-21T01:52:29.758Z,464.00
2023-05-21T01:53:29.735Z,470.00
2023-05-21T01:54:29.757Z,467.00
2023-05-21T01:55:29.753Z,469.00
2023-05-21T01:56:29.758Z,470.00
2023-05-21T01:57:29.763Z,469.00
2023-05-21T01:58:29.762Z,465.00
2023-05-21T01:59:29.810Z,462.00
2023-05-21T02:00:29.855Z,459.00
2023-05-21T02:01:29.850Z,458.00
2023-05-21T02:02:29.952Z,456.00
2023-05-21T02:03:29.965Z,458.00
2023-05-21T02:04:29.853Z,458.00
2023-05-21T02:05:29.878Z,456.00
2023-05-21T02:06:29.835Z,451.00
2023-05-21T02:07:29.885Z,458.00
2023-05-21T02:08:29.852Z,460.00
2023-05-21T02:09:29.980Z,463.00
2023-05-21T02:10:30.013Z,464.00
2023-05-21T02:11:29.899Z,464.00
2023-05-21T02:12:29.962Z,463.00
2023-05-21T02:13:29.984Z,467.00
2023-05-21T02:14:29.969Z,468.00
2023-05-21T02:15:30.000Z,469.00
2023-05-21T02:16:30.135Z,462.00
2023-05-21T02:17:30.053Z,464.00
2023-05-21T02:18:30.094Z,453.00
2023-05-21T02:19:30.399Z,452.00
2023-05-21T02:20:30.177Z,458.00
2023-05-21T02:21:30.163Z,467.00
2023-05-21T02:22:30.228Z,452.00
2023-05-21T02:23:30.225Z,452.00
2023-05-21T02:24:30.224Z,449.00
2023-05-21T02:25:30.235Z,446.00
2023-05-21T02:26:30.251Z,449.00
2023-05-21T02:27:30.255Z,453.00
2023-05-21T02:28:30.275Z,455.00
2023-05-21T02:29:30.268Z,459.00
2023-05-21T02:30:30.326Z,459.00
2023-05-21T02:31:30.292Z,460.00
2023-05-21T02:32:31.182Z,460.00
2023-05-21T02:33:30.300Z,461.00
2023-05-21T02:34:30.360Z,463.00
2023-05-21T02:35:30.364Z,463.00
2023-05-21T02:36:30.381Z,467.00
2023-05-21T02:37:30.471Z,462.00
2023-05-21T02:38:30.536Z,463.00
2023-05-21T02:39:30.595Z,466.00
2023-05-21T02:40:30.635Z,466.00
2023-05-21T02:41:30.710Z,468.00
2023-05-21T02:42:30.717Z,469.00
2023-05-21T02:43:30.694Z,471.00
2023-05-21T02:44:30.744Z,474.00
2023-05-21T02:45:30.790Z,464.00
2023-05-21T02:46:30.851Z,468.00
2023-05-21T02:47:30.826Z,465.00
2023-05-21T02:48:30.787Z,469.00
2023-05-21T02:49:30.840Z,467.00
2023-05-21T02:50:30.853Z,464.00
2023-05-21T02:51:30.862Z,464.00
2023-05-21T02:52:30.816Z,458.00
2023-05-21T02:53:30.888Z,477.00
2023-05-21T02:54:30.922Z,469.00
2023-05-21T02:55:31.737Z,469.00
2023-05-21T02:56:30.894Z,468.00
2023-05-21T02:57:30.884Z,473.00
2023-05-21T02:58:30.872Z,498.00
2023-05-21T02:59:30.900Z,474.00
2023-05-21T03:00:30.961Z,472.00
2023-05-21T03:01:30.964Z,463.00
2023-05-21T03:02:31.079Z,469.00
2023-05-21T03:03:31.142Z,471.00
2023-05-21T03:04:31.036Z,479.00
2023-05-21T03:05:31.011Z,475.00
2023-05-21T03:06:31.019Z,468.00
2023-05-21T03:07:31.025Z,471.00
2023-05-21T03:08:31.053Z,473.00
2023-05-21T03:09:31.080Z,467.00
2023-05-21T03:10:31.070Z,467.00
2023-05-21T03:11:31.149Z,468.00
2023-05-21T03:12:31.230Z,469.00
2023-05-21T03:13:31.327Z,469.00
2023-05-21T03:14:31.310Z,468.00
2023-05-21T03:15:31.422Z,474.00
2023-05-21T03:16:31.441Z,471.00
2023-05-21T03:17:31.427Z,472.00
2023-05-21T03:18:31.367Z,469.00
2023-05-21T03:19:31.423Z,465.00
2023-05-21T03:20:31.373Z,463.00
2023-05-21T03:21:31.312Z,469.00
2023-05-21T03:22:31.334Z,470.00
2023-05-21T03:23:31.313Z,472.00
2023-05-21T03:24:31.365Z,474.00
2023-05-21T03:25:31.542Z,473.00
2023-05-21T03:26:31.492Z,480.00
2023-05-21T03:27:31.527Z,465.00
2023-05-21T03:28:31.582Z,466.00
2023-05-21T03:29:31.658Z,471.00
2023-05-21T03:30:31.673Z,474.00
2023-05-21T03:31:31.711Z,475.00
2023-05-21T03:32:31.822Z,475.00
2023-05-21T03:33:31.837Z,480.00
2023-05-21T03:34:31.828Z,478.00
2023-05-21T03:35:31.815Z,475.00
2023-05-21T03:36:31.921Z,475.00
2023-05-21T03:37:31.957Z,473.00
2023-05-21T03:38:31.900Z,483.00
2023-05-21T03:39:31.897Z,473.00
2023-05-21T03:40:31.968Z,478.00
2023-05-21T03:41:32.059Z,480.00
2023-05-21T03:42:32.011Z,479.00
2023-05-21T03:43:32.030Z,475.00
2023-05-21T03:44:32.094Z,472.00
2023-05-21T03:45:32.133Z,472.00
2023-05-21T03:46:32.338Z,475.00
2023-05-21T03:47:32.137Z,475.00
2023-05-21T03:48:32.149Z,480.00
2023-05-21T03:49:32.101Z,470.00
2023-05-21T03:50:32.111Z,471.00
2023-05-21T03:51:32.084Z,472.00
2023-05-21T03:52:32.070Z,473.00
2023-05-21T03:53:32.061Z,471.00
2023-05-21T03:54:32.049Z,473.00
2023-05-21T03:55:32.060Z,477.00
2023-05-21T03:56:32.071Z,481.00
2023-05-21T03:57:32.045Z,482.00
2023-05-21T03:58:32.043Z,477.00
2023-05-21T03:59:32.009Z,474.00
2023-05-21T04:00:32.030Z,477.00
2023-05-21T04:01:32.067Z,480.00
2023-05-21T04:02:32.152Z,479.00
2023-05-21T04:03:32.229Z,478.00
2023-05-21T04:04:32.048Z,476.00
2023-05-21T04:05:32.012Z,477.00
2023-05-21T04:06:32.045Z,477.00
2023-05-21T04:07:32.011Z,473.00
2023-05-21T04:08:31.992Z,473.00
2023-05-21T04:09:32.004Z,475.00
2023-05-21T04:10:32.055Z,477.00
2023-05-21T04:11:31.973Z,477.00
2023-05-21T04:12:32.008Z,473.00
2023-05-21T04:13:31.981Z,465.00
2023-05-21T04:14:31.977Z,470.00
2023-05-21T04:15:31.978Z,475.00
2023-05-21T04:16:32.073Z,477.00
2023-05-21T04:17:32.030Z,469.00
2023-05-21T04:18:32.010Z,472.00
2023-05-21T04:19:32.194Z,478.00
2023-05-21T04:20:32.032Z,486.00
2023-05-21T04:21:32.022Z,470.00
2023-05-21T04:22:32.106Z,469.00
2023-05-21T04:23:32.157Z,476.00
2023-05-21T04:24:32.129Z,479.00
2023-05-21T04:25:32.687Z,475.00
2023-05-21T04:26:32.176Z,479.00
2023-05-21T04:27:32.183Z,479.00
2023-05-21T04:28:32.167Z,480.00
2023-05-21T04:29:32.195Z,480.00
2023-05-21T04:30:32.219Z,515.00
2023-05-21T04:31:32.258Z,490.00
2023-05-21T04:32:32.241Z,492.00
2023-05-21T04:33:32.254Z,485.00
2023-05-21T04:34:32.287Z,484.00
2023-05-21T04:35:32.345Z,483.00
2023-05-21T04:36:32.401Z,479.00
2023-05-21T04:37:32.435Z,481.00
2023-05-21T04:38:32.476Z,478.00
2023-05-21T04:39:32.565Z,478.00
2023-05-21T04:40:32.592Z,479.00
2023-05-21T04:41:32.534Z,482.00
2023-05-21T04:42:32.560Z,480.00
2023-05-21T04:43:32.530Z,480.00
2023-05-21T04:44:32.520Z,482.00
2023-05-21T04:45:32.541Z,481.00
2023-05-21T04:46:32.559Z,480.00
2023-05-21T04:47:32.546Z,477.00
2023-05-21T04:48:32.503Z,476.00
2023-05-21T04:49:32.535Z,475.00
2023-05-21T04:50:32.554Z,477.00
2023-05-21T04:51:32.477Z,479.00
2023-05-21T04:52:32.462Z,480.00
2023-05-21T04:53:32.498Z,488.00
2023-05-21T04:54:32.489Z,487.00
2023-05-21T04:55:32.462Z,484.00
2023-05-21T04:56:32.486Z,483.00
2023-05-21T04:57:32.452Z,485.00
2023-05-21T04:58:32.413Z,484.00
2023-05-21T04:59:32.432Z,483.00
2023-05-21T05:00:32.461Z,480.00
2023-05-21T05:01:32.397Z,486.00
2023-05-21T05:02:32.452Z,531.00
2023-05-21T05:03:32.463Z,501.00
2023-05-21T05:04:32.474Z,485.00
2023-05-21T05:05:32.424Z,483.00
2023-05-21T05:06:32.377Z,482.00
2023-05-21T05:07:32.374Z,498.00
2023-05-21T05:08:32.372Z,467.00
2023-05-21T05:09:32.385Z,470.00
2023-05-21T05:10:32.417Z,474.00
2023-05-21T05:11:32.376Z,487.00
2023-05-21T05:12:32.392Z,489.00
2023-05-21T05:13:32.420Z,479.00
2023-05-21T05:14:32.414Z,477.00
2023-05-21T05:15:32.469Z,480.00
2023-05-21T05:16:32.549Z,488.00
2023-05-21T05:17:32.436Z,492.00
2023-05-21T05:18:32.432Z,464.00
2023-05-21T05:19:32.495Z,502.00
2023-05-21T05:20:32.475Z,486.00
2023-05-21T05:21:32.477Z,484.00
2023-05-21T05:22:32.558Z,487.00
2023-05-21T05:23:32.564Z,480.00
2023-05-21T05:24:32.595Z,481.00
2023-05-21T05:25:32.601Z,484.00
2023-05-21T05:26:32.598Z,488.00
2023-05-21T05:27:32.620Z,454.00
2023-05-21T05:28:32.638Z,481.00
2023-05-21T05:29:32.626Z,481.00
2023-05-21T05:30:32.708Z,488.00
2023-05-21T05:31:32.708Z,498.00
2023-05-21T05:32:32.661Z,486.00
2023-05-21T05:33:32.694Z,485.00
2023-05-21T05:34:32.706Z,487.00
2023-05-21T05:35:32.782Z,489.00
2023-05-21T05:36:32.813Z,484.00
2023-05-21T05:37:32.794Z,485.00
2023-05-21T05:38:32.864Z,490.00
2023-05-21T05:39:33.025Z,479.00
2023-05-21T05:40:33.037Z,483.00
2023-05-21T05:41:33.023Z,473.00
2023-05-21T05:42:32.998Z,469.00
2023-05-21T05:43:33.015Z,461.00
2023-05-21T05:44:33.028Z,465.00
2023-05-21T05:45:33.029Z,458.00
2023-05-21T05:46:33.031Z,457.00
2023-05-21T05:47:33.043Z,453.00
2023-05-21T05:48:32.959Z,455.00
2023-05-21T05:49:32.979Z,464.00
2023-05-21T05:50:32.960Z,475.00
2023-05-21T05:51:32.955Z,479.00
2023-05-21T05:52:32.986Z,471.00
2023-05-21T05:53:33.040Z,471.00
2023-05-21T05:54:33.063Z,467.00
2023-05-21T05:55:33.118Z,462.00
2023-05-21T05:56:33.115Z,459.00
2023-05-21T05:57:33.099Z,464.00
2023-05-21T05:58:33.146Z,466.00
2023-05-21T05:59:33.127Z,466.00
2023-05-21T06:00:33.182Z,464.00
2023-05-21T06:01:33.154Z,463.00
2023-05-21T06:02:33.227Z,465.00
2023-05-21T06:03:33.293Z,461.00
2023-05-21T06:04:33.208Z,484.00
2023-05-21T06:05:33.282Z,460.00
2023-05-21T06:06:33.300Z,457.00
2023-05-21T06:07:33.323Z,459.00
2023-05-21T06:08:33.998Z,468.00
2023-05-21T06:09:33.330Z,468.00
2023-05-21T06:10:33.342Z,479.00
2023-05-21T06:11:33.354Z,467.00
2023-05-21T06:12:33.371Z,463.00
2023-05-21T06:13:33.359Z,458.00
2023-05-21T06:14:33.367Z,470.00
2023-05-21T06:15:33.381Z,462.00
2023-05-21T06:16:33.412Z,458.00
2023-05-21T06:17:33.558Z,457.00
2023-05-21T06:18:33.482Z,456.00
2023-05-21T06:19:33.519Z,476.00
2023-05-21T06:20:33.535Z,449.00
2023-05-21T06:21:33.525Z,442.00
2023-05-21T06:22:33.532Z,468.00
2023-05-21T06:23:33.562Z,469.00
2023-05-21T06:24:33.586Z,448.00
2023-05-21T06:25:33.733Z,457.00
2023-05-21T06:26:33.702Z,450.00
2023-05-21T06:27:33.748Z,457.00
2023-05-21T06:28:33.788Z,460.00
2023-05-21T06:29:33.833Z,426.00
2023-05-21T06:30:33.888Z,464.00
2023-05-21T06:31:33.892Z,398.00
2023-05-21T06:32:34.002Z,493.00
2023-05-21T06:33:34.060Z,442.00
2023-05-21T06:34:33.979Z,440.00
2023-05-21T06:35:34.181Z,447.00
2023-05-21T06:36:34.110Z,447.00
2023-05-21T06:37:34.135Z,440.00
2023-05-21T06:38:34.175Z,442.00
2023-05-21T06:39:34.200Z,440.00
2023-05-21T06:40:34.272Z,442.00
2023-05-21T06:41:34.322Z,472.00
2023-05-21T06:42:34.403Z,470.00
2023-05-21T06:43:34.343Z,422.00
2023-05-21T06:44:34.337Z,435.00
2023-05-21T06:45:34.452Z,390.00
2023-05-21T06:46:35.351Z,451.00
2023-05-21T06:47:34.424Z,479.00
2023-05-21T06:48:34.300Z,462.00
2023-05-21T06:49:34.302Z,436.00
2023-05-21T06:50:34.349Z,443.00
2023-05-21T06:51:34.393Z,451.00
2023-05-21T06:52:34.383Z,449.00
2023-05-21T06:53:34.343Z,436.00
2023-05-21T06:54:34.371Z,445.00
2023-05-21T06:55:34.540Z,441.00
2023-05-21T06:56:34.427Z,443.00
2023-05-21T06:57:34.469Z,468.00
2023-05-21T06:58:34.512Z,441.00
2023-05-21T06:59:34.584Z,447.00
2023-05-21T07:00:34.651Z,433.00
2023-05-21T07:01:34.653Z,446.00
2023-05-21T07:02:34.758Z,433.00
2023-05-21T07:03:34.702Z,441.00
2023-05-21T07:04:34.700Z,469.00
2023-05-21T07:05:35.086Z,473.00
2023-05-21T07:06:34.831Z,436.00
2023-05-21T07:07:34.959Z,440.00
2023-05-21T07:08:34.902Z,447.00
2023-05-21T07:09:34.986Z,430.00
2023-05-21T07:10:34.967Z,444.00
2023-05-21T07:11:34.939Z,442.00
2023-05-21T07:12:35.016Z,450.00
2023-05-21T07:13:35.009Z,432.00
2023-05-21T07:14:34.973Z,422.00
2023-05-21T07:15:35.175Z,504.00
2023-05-21T07:16:34.982Z,421.00
2023-05-21T07:17:35.083Z,441.00
2023-05-21T07:18:34.930Z,489.00
2023-05-21T07:19:34.966Z,429.00
2023-05-21T07:20:34.958Z,471.00
2023-05-21T07:21:34.942Z,434.00
2023-05-21T07:22:34.941Z,442.00
2023-05-21T07:23:34.924Z,420.00
2023-05-21T07:24:34.920Z,400.00
2023-05-21T07:25:35.152Z,449.00
2023-05-21T07:26:34.922Z,435.00
2023-05-21T07:27:34.919Z,418.00
2023-05-21T07:28:34.909Z,434.00
2023-05-21T07:29:35.297Z,435.00
2023-05-21T07:30:34.919Z,446.00
2023-05-21T07:31:34.957Z,469.00
2023-05-21T07:32:35.058Z,376.00
2023-05-21T07:33:34.976Z,445.00
2023-05-21T07:34:35.030Z,425.00
2023-05-21T07:35:35.234Z,429.00
2023-05-21T07:36:35.064Z,445.00
2023-05-21T07:37:35.108Z,417.00
2023-05-21T07:38:35.042Z,424.00
2023-05-21T07:39:35.040Z,459.00
2023-05-21T07:40:35.045Z,432.00
2023-05-21T07:41:35.029Z,425.00
2023-05-21T07:42:35.056Z,423.00
2023-05-21T07:43:35.018Z,436.00
2023-05-21T07:44:35.035Z,466.00
2023-05-21T07:45:35.146Z,426.00
2023-05-21T07:46:35.040Z,462.00
2023-05-21T07:47:35.083Z,439.00
2023-05-21T07:48:35.771Z,435.00
2023-05-21T07:49:35.106Z,432.00
2023-05-21T07:50:35.162Z,418.00
2023-05-21T07:51:35.184Z,425.00
2023-05-21T07:52:35.167Z,424.00
2023-05-21T07:53:35.198Z,425.00
2023-05-21T07:54:35.207Z,428.00
2023-05-21T07:55:35.364Z,422.00
2023-05-21T07:56:35.261Z,414.00
2023-05-21T07:57:35.281Z,421.00
2023-05-21T07:58:35.376Z,426.00
2023-05-21T07:59:35.303Z,428.00
2023-05-21T08:00:35.397Z,425.00
2023-05-21T08:01:35.419Z,429.00
2023-05-21T08:02:35.525Z,421.00
2023-05-21T08:03:35.622Z,410.00
2023-05-21T08:04:36.535Z,381.00
2023-05-21T08:05:35.770Z,411.00
2023-05-21T08:06:35.552Z,416.00
2023-05-21T08:07:35.641Z,415.00
2023-05-21T08:08:35.673Z,429.00
2023-05-21T08:09:35.834Z,433.00
2023-05-21T08:10:35.798Z,416.00
2023-05-21T08:11:36.361Z,417.00
2023-05-21T08:12:35.766Z,438.00
2023-05-21T08:13:35.876Z,426.00
2023-05-21T08:14:35.919Z,429.00
2023-05-21T08:15:36.119Z,426.00
2023-05-21T08:16:36.137Z,419.00
2023-05-21T08:17:36.097Z,426.00
2023-05-21T08:18:36.073Z,427.00
2023-05-21T08:19:36.176Z,452.00
2023-05-21T08:20:36.159Z,448.00
2023-05-21T08:21:44.249Z,430.00
2023-05-21T08:22:36.164Z,428.00
2023-05-21T08:23:36.165Z,407.00
2023-05-21T08:24:36.106Z,419.00
2023-05-21T08:25:36.384Z,424.00
2023-05-21T08:26:36.128Z,423.00
2023-05-21T08:27:36.093Z,430.00
2023-05-21T08:28:36.084Z,407.00
2023-05-21T08:29:36.118Z,412.00
2023-05-21T08:30:36.113Z,470.00
2023-05-21T08:31:36.131Z,418.00
2023-05-21T08:32:36.098Z,410.00
2023-05-21T08:33:36.083Z,407.00
2023-05-21T08:34:36.096Z,415.00
2023-05-21T08:35:36.428Z,411.00
2023-05-21T08:36:36.220Z,411.00
2023-05-21T08:37:36.274Z,415.00
2023-05-21T08:38:36.292Z,411.00
2023-05-21T08:39:36.357Z,417.00
2023-05-21T08:40:36.329Z,420.00
2023-05-21T08:41:36.303Z,424.00
2023-05-21T08:42:37.522Z,417.00
2023-05-21T08:43:36.310Z,417.00
2023-05-21T08:44:36.321Z,418.00
2023-05-21T08:45:36.537Z,414.00
2023-05-21T08:46:36.320Z,416.00
2023-05-21T08:47:36.333Z,399.00
2023-05-21T08:48:36.301Z,427.00
2023-05-21T08:49:36.360Z,413.00
2023-05-21T08:50:36.377Z,416.00
2023-05-21T08:51:36.430Z,418.00
2023-05-21T08:52:36.421Z,417.00
2023-05-21T08:53:36.391Z,424.00
2023-05-21T08:54:36.411Z,425.00
2023-05-21T08:55:36.657Z,423.00
2023-05-21T08:56:36.458Z,416.00
2023-05-21T08:57:36.524Z,420.00
2023-05-21T08:58:36.597Z,423.00
2023-05-21T08:59:36.591Z,418.00
2023-05-21T09:00:36.590Z,403.00
2023-05-21T09:01:36.620Z,411.00
2023-05-21T09:02:36.698Z,427.00
2023-05-21T09:03:36.638Z,418.00
2023-05-21T09:04:36.760Z,427.00
2023-05-21T09:05:36.929Z,457.00
2023-05-21T09:06:36.787Z,429.00
2023-05-21T09:07:36.805Z,423.00
2023-05-21T09:08:36.849Z,419.00
2023-05-21T09:09:36.859Z,416.00
2023-05-21T09:10:44.949Z,415.00
2023-05-21T09:11:36.867Z,411.00
2023-05-21T09:12:36.904Z,422.00
2023-05-21T09:13:38.811Z,381.00
2023-05-21T09:14:36.842Z,384.00
2023-05-21T09:15:37.120Z,424.00
2023-05-21T09:16:36.939Z,408.00
2023-05-21T09:17:36.960Z,403.00
2023-05-21T09:18:36.910Z,414.00
2023-05-21T09:19:37.072Z,399.00
2023-05-21T09:20:37.041Z,415.00
2023-05-21T09:21:37.050Z,417.00
2023-05-21T09:22:37.081Z,415.00
2023-05-21T09:23:37.073Z,420.00
2023-05-21T09:24:37.102Z,416.00
2023-05-21T09:25:37.270Z,405.00
2023-05-21T09:26:37.089Z,396.00
2023-05-21T09:27:37.095Z,423.00
2023-05-21T09:28:37.206Z,411.00
2023-05-21T09:29:37.227Z,410.00
2023-05-21T09:30:37.517Z,404.00
2023-05-21T09:31:37.319Z,409.00
2023-05-21T09:32:37.276Z,399.00
2023-05-21T09:33:37.373Z,421.00
2023-05-21T09:34:37.340Z,415.00
2023-05-21T09:35:38.186Z,413.00
2023-05-21T09:36:37.410Z,411.00
2023-05-21T09:37:37.498Z,394.00
2023-05-21T09:38:37.475Z,447.00
2023-05-21T09:39:37.574Z,418.00
2023-05-21T09:40:37.773Z,408.00
2023-05-21T09:41:37.638Z,409.00
2023-05-21T09:42:37.604Z,399.00
2023-05-21T09:43:37.652Z,407.00
2023-05-21T09:44:37.654Z,398.00
2023-05-21T09:45:37.917Z,398.00
2023-05-21T09:46:37.835Z,408.00
2023-05-21T09:47:37.817Z,399.00
2023-05-21T09:48:37.781Z,430.00
2023-05-21T09:49:37.810Z,390.00
2023-05-21T09:50:38.020Z,399.00
2023-05-21T09:51:37.866Z,405.00
2023-05-21T09:52:39.103Z,405.00
2023-05-21T09:53:37.938Z,407.00
2023-05-21T09:54:38.027Z,401.00
2023-05-21T09:55:38.025Z,414.00
2023-05-21T09:56:38.030Z,414.00
2023-05-21T09:57:37.969Z,417.00
2023-05-21T09:58:37.978Z,410.00
2023-05-21T09:59:37.987Z,410.00
2023-05-21T10:00:38.157Z,416.00
2023-05-21T10:01:37.975Z,413.00
2023-05-21T10:02:38.037Z,412.00
2023-05-21T10:03:37.943Z,399.00
2023-05-21T10:04:38.009Z,409.00
2023-05-21T10:05:37.900Z,405.00
2023-05-21T10:06:37.910Z,401.00
2023-05-21T10:07:37.895Z,409.00
2023-05-21T10:08:37.934Z,402.00
2023-05-21T10:09:37.923Z,407.00
2023-05-21T10:10:38.138Z,398.00
2023-05-21T10:11:37.930Z,423.00
2023-05-21T10:12:37.914Z,395.00
2023-05-21T10:13:37.863Z,405.00
2023-05-21T10:14:37.886Z,403.00
2023-05-21T10:15:37.877Z,406.00
2023-05-21T10:16:37.949Z,401.00
2023-05-21T10:17:37.895Z,428.00
2023-05-21T10:18:37.850Z,403.00
2023-05-21T10:19:37.854Z,396.00
2023-05-21T10:20:38.092Z,397.00
2023-05-21T10:21:37.910Z,404.00
2023-05-21T10:22:37.826Z,399.00
2023-05-21T10:23:37.829Z,407.00
2023-05-21T10:24:37.841Z,404.00
2023-05-21T10:25:37.845Z,406.00
2023-05-21T10:26:37.814Z,401.00
2023-05-21T10:27:37.839Z,405.00
2023-05-21T10:28:37.808Z,415.00
2023-05-21T10:29:37.815Z,406.00
2023-05-21T10:30:38.125Z,415.00
2023-05-21T10:31:37.797Z,402.00
2023-05-21T10:32:37.946Z,436.00
2023-05-21T10:33:37.871Z,401.00
2023-05-21T10:34:37.825Z,410.00
2023-05-21T10:35:38.071Z,406.00
2023-05-21T10:36:37.994Z,408.00
2023-05-21T10:37:37.872Z,379.00
2023-05-21T10:38:37.937Z,408.00
2023-05-21T10:39:38.064Z,401.00
2023-05-21T10:40:38.187Z,408.00
2023-05-21T10:41:38.060Z,410.00
2023-05-21T10:42:38.049Z,397.00
2023-05-21T10:43:38.094Z,406.00
2023-05-21T10:44:38.037Z,396.00
2023-05-21T10:45:38.120Z,397.00
2023-05-21T10:46:38.092Z,396.00
2023-05-21T10:47:38.192Z,397.00
2023-05-21T10:48:38.141Z,447.00
2023-05-21T10:49:38.151Z,406.00
2023-05-21T10:50:38.494Z,409.00
2023-05-21T10:51:38.342Z,412.00
2023-05-21T10:52:38.352Z,412.00
2023-05-21T10:53:38.346Z,420.00
2023-05-21T10:54:38.359Z,416.00
2023-05-21T10:55:38.368Z,409.00
2023-05-21T10:56:38.363Z,400.00
2023-05-21T10:57:38.320Z,408.00
2023-05-21T10:58:38.366Z,413.00
2023-05-21T10:59:38.321Z,404.00
2023-05-21T11:00:38.523Z,401.00
2023-05-21T11:01:38.351Z,406.00
2023-05-21T11:02:38.383Z,410.00
2023-05-21T11:03:38.407Z,407.00
2023-05-21T11:04:38.256Z,402.00
2023-05-21T11:05:38.314Z,420.00
2023-05-21T11:06:38.334Z,385.00
2023-05-21T11:07:38.268Z,395.00
2023-05-21T11:08:38.273Z,401.00
2023-05-21T11:09:38.301Z,406.00
2023-05-21T11:10:38.569Z,406.00
2023-05-21T11:11:38.288Z,418.00
2023-05-21T11:12:38.264Z,420.00
2023-05-21T11:13:38.276Z,460.00
2023-05-21T11:14:38.347Z,428.00
2023-05-21T11:15:38.396Z,450.00
2023-05-21T11:16:38.429Z,421.00
2023-05-21T11:17:38.578Z,412.00
2023-05-21T11:18:38.495Z,404.00
2023-05-21T11:19:38.833Z,412.00
2023-05-21T11:20:38.799Z,396.00
2023-05-21T11:21:38.583Z,407.00
2023-05-21T11:22:38.601Z,409.00
2023-05-21T11:23:38.692Z,427.00
2023-05-21T11:24:38.708Z,446.00
2023-05-21T11:25:38.723Z,401.00
2023-05-21T11:26:38.794Z,425.00
2023-05-21T11:27:38.783Z,446.00
2023-05-21T11:28:38.800Z,426.00
2023-05-21T11:29:38.883Z,416.00
2023-05-21T11:30:40.864Z,410.00
2023-05-21T11:31:39.106Z,455.00
2023-05-21T11:32:38.928Z,427.00
2023-05-21T11:33:38.878Z,416.00
2023-05-21T11:34:38.922Z,407.00
2023-05-21T11:35:38.936Z,409.00
2023-05-21T11:36:38.981Z,410.00
2023-05-21T11:37:39.004Z,410.00
2023-05-21T11:38:39.065Z,417.00
2023-05-21T11:39:39.010Z,414.00
2023-05-21T11:40:39.086Z,435.00
2023-05-21T11:41:39.086Z,414.00
2023-05-21T11:42:39.100Z,416.00
2023-05-21T11:43:39.113Z,418.00
2023-05-21T11:44:39.205Z,415.00
2023-05-21T11:45:39.220Z,421.00
2023-05-21T11:46:39.327Z,410.00
2023-05-21T11:47:39.316Z,408.00
2023-05-21T11:48:39.307Z,422.00
2023-05-21T11:49:39.289Z,421.00
2023-05-21T11:50:39.600Z,417.00
2023-05-21T11:51:39.446Z,410.00
2023-05-21T11:52:39.428Z,406.00
2023-05-21T11:53:39.483Z,416.00
2023-05-21T11:54:39.458Z,415.00
2023-05-21T11:55:39.516Z,424.00
2023-05-21T11:56:39.513Z,419.00
2023-05-21T11:57:39.524Z,413.00
2023-05-21T11:58:39.533Z,401.00
2023-05-21T11:59:39.514Z,406.00
2023-05-21T12:00:39.522Z,421.00
2023-05-21T12:01:39.616Z,411.00
2023-05-21T12:02:39.622Z,423.00
2023-05-21T12:03:39.745Z,423.00
2023-05-21T12:04:39.597Z,405.00
2023-05-21T12:05:39.642Z,399.00
2023-05-21T12:06:39.568Z,414.00
2023-05-21T12:07:39.619Z,435.00
2023-05-21T12:08:39.706Z,408.00
2023-05-21T12:09:39.679Z,420.00
2023-05-21T12:10:39.724Z,421.00
2023-05-21T12:11:39.808Z,433.00
2023-05-21T12:12:53.344Z,408.00
2023-05-21T12:13:39.771Z,426.00
2023-05-21T12:14:39.799Z,416.00
2023-05-21T12:15:39.777Z,416.00
2023-05-21T12:16:39.877Z,423.00
2023-05-21T12:17:39.796Z,422.00
2023-05-21T12:18:39.766Z,422.00
2023-05-21T12:19:39.742Z,431.00
2023-05-21T12:20:39.753Z,441.00
2023-05-21T12:21:39.794Z,427.00
2023-05-21T12:22:39.827Z,422.00
2023-05-21T12:23:39.707Z,419.00
2023-05-21T12:24:39.726Z,405.00
2023-05-21T12:25:39.714Z,425.00
2023-05-21T12:26:39.730Z,421.00
2023-05-21T12:27:39.664Z,426.00
2023-05-21T12:28:39.665Z,398.00